sensor_id;sensor_type;location;lat;lon;timestamp;temperature;humidity
19037;DHT22;9651;49.138;8.900;2023-03-05T00:02:20;4.00;99.90
19037;DHT22;9651;49.138;8.900;2023-03-05T00:06:23;4.00;99.90
19037;DHT22;9651;49.138;8.900;2023-03-05T00:10:26;4.00;99.90
19037;DHT22;9651;49.138;8.900;2023-03-05T00:14:29;4.00;99.90
19037;DHT22;9651;49.138;8.900;2023-03-05T00:18:31;4.00;99.90
19037;DHT22;9651;49.138;8.900;2023-03-05T00:22:33;4.00;99.90
19037;DHT22;9651;49.138;8.900;2023-03-05T00:26:36;4.00;99.90
19037;DHT22;9651;49.138;8.900;2023-03-05T00:30:40;3.90;99.90
19037;DHT22;9651;49.138;8.900;2023-03-05T00:34:43;3.90;99.90
19037;DHT22;9651;49.138;8.900;2023-03-05T00:38:45;3.90;99.90
19037;DHT22;9651;49.138;8.900;2023-03-05T00:42:47;3.90;99.90
19037;DHT22;9651;49.138;8.900;2023-03-05T00:46:50;3.90;99.90
19037;DHT22;9651;49.138;8.900;2023-03-05T00:50:52;3.90;99.90
19037;DHT22;9651;49.138;8.900;2023-03-05T00:54:54;3.90;99.90
19037;DHT22;9651;49.138;8.900;2023-03-05T00:58:56;3.90;99.90
19037;DHT22;9651;49.138;8.900;2023-03-05T01:02:59;3.90;99.90
19037;DHT22;9651;49.138;8.900;2023-03-05T01:07:01;3.90;99.90
19037;DHT22;9651;49.138;8.900;2023-03-05T01:11:05;3.90;99.90
19037;DHT22;9651;49.138;8.900;2023-03-05T01:15:07;3.90;99.90
19037;DHT22;9651;49.138;8.900;2023-03-05T01:19:11;3.90;99.90
19037;DHT22;9651;49.138;8.900;2023-03-05T01:23:14;3.90;99.90
19037;DHT22;9651;49.138;8.900;2023-03-05T01:27:16;4.00;99.90
19037;DHT22;9651;49.138;8.900;2023-03-05T01:31:18;3.90;99.90
19037;DHT22;9651;49.138;8.900;2023-03-05T01:35:23;4.00;99.90
19037;DHT22;9651;49.138;8.900;2023-03-05T01:39:25;4.00;99.90
19037;DHT22;9651;49.138;8.900;2023-03-05T01:43:29;4.00;99.90
19037;DHT22;9651;49.138;8.900;2023-03-05T01:47:31;4.00;99.90
19037;DHT22;9651;49.138;8.900;2023-03-05T01:51:37;4.00;99.90
19037;DHT22;9651;49.138;8.900;2023-03-05T01:55:40;4.00;99.90
19037;DHT22;9651;49.138;8.900;2023-03-05T01:59:44;3.90;99.90
19037;DHT22;9651;49.138;8.900;2023-03-05T02:03:49;3.90;99.90
19037;DHT22;9651;49.138;8.900;2023-03-05T02:07:53;3.90;99.90
19037;DHT22;9651;49.138;8.900;2023-03-05T02:11:56;3.90;99.90
19037;DHT22;9651;49.138;8.900;2023-03-05T02:15:59;3.90;99.90
19037;DHT22;9651;49.138;8.900;2023-03-05T02:20:04;3.90;99.90
19037;DHT22;9651;49.138;8.900;2023-03-05T02:24:10;3.80;99.90
19037;DHT22;9651;49.138;8.900;2023-03-05T02:28:16;3.80;99.90
19037;DHT22;9651;49.138;8.900;2023-03-05T02:32:19;3.90;99.90
19037;DHT22;9651;49.138;8.900;2023-03-05T02:36:21;3.80;99.90
19037;DHT22;9651;49.138;8.900;2023-03-05T02:40:24;3.80;99.90
19037;DHT22;9651;49.138;8.900;2023-03-05T02:44:26;3.90;99.90
19037;DHT22;9651;49.138;8.900;2023-03-05T02:48:29;3.80;99.90
19037;DHT22;9651;49.138;8.900;2023-03-05T02:52:31;3.70;99.90
19037;DHT22;9651;49.138;8.900;2023-03-05T02:56:36;3.70;99.90
19037;DHT22;9651;49.138;8.900;2023-03-05T03:00:39;3.70;99.90
19037;DHT22;9651;49.138;8.900;2023-03-05T03:04:42;3.60;99.90
19037;DHT22;9651;49.138;8.900;2023-03-05T03:08:44;3.60;99.90
19037;DHT22;9651;49.138;8.900;2023-03-05T03:12:47;3.70;99.90
19037;DHT22;9651;49.138;8.900;2023-03-05T03:16:49;3.70;99.90
19037;DHT22;9651;49.138;8.900;2023-03-05T03:20:51;3.70;99.90
19037;DHT22;9651;49.138;8.900;2023-03-05T03:24:52;3.70;99.90
19037;DHT22;9651;49.138;8.900;2023-03-05T03:28:56;3.70;99.90
19037;DHT22;9651;49.138;8.900;2023-03-05T03:32:58;3.70;99.90
19037;DHT22;9651;49.138;8.900;2023-03-05T03:37:00;3.70;99.90
19037;DHT22;9651;49.138;8.900;2023-03-05T03:41:04;3.70;99.90
19037;DHT22;9651;49.138;8.900;2023-03-05T03:45:08;3.80;99.90
19037;DHT22;9651;49.138;8.900;2023-03-05T03:49:14;3.70;99.90
19037;DHT22;9651;49.138;8.900;2023-03-05T03:53:16;3.70;99.90
19037;DHT22;9651;49.138;8.900;2023-03-05T03:57:18;3.70;99.90
19037;DHT22;9651;49.138;8.900;2023-03-05T04:01:21;3.70;99.90
19037;DHT22;9651;49.138;8.900;2023-03-05T04:05:23;3.70;99.90
19037;DHT22;9651;49.138;8.900;2023-03-05T04:09:25;3.70;99.90
19037;DHT22;9651;49.138;8.900;2023-03-05T04:13:27;3.70;99.90
19037;DHT22;9651;49.138;8.900;2023-03-05T04:17:32;3.70;99.90
19037;DHT22;9651;49.138;8.900;2023-03-05T04:21:33;3.80;99.90
19037;DHT22;9651;49.138;8.900;2023-03-05T04:25:35;3.80;99.90
19037;DHT22;9651;49.138;8.900;2023-03-05T04:29:37;3.80;99.90
19037;DHT22;9651;49.138;8.900;2023-03-05T04:33:41;3.80;99.90
19037;DHT22;9651;49.138;8.900;2023-03-05T04:37:43;3.80;99.90
19037;DHT22;9651;49.138;8.900;2023-03-05T04:41:44;3.70;99.90
19037;DHT22;9651;49.138;8.900;2023-03-05T04:45:46;3.70;99.90
19037;DHT22;9651;49.138;8.900;2023-03-05T04:49:50;3.70;99.90
19037;DHT22;9651;49.138;8.900;2023-03-05T04:53:51;3.80;99.90
19037;DHT22;9651;49.138;8.900;2023-03-05T04:57:53;3.70;99.90
19037;DHT22;9651;49.138;8.900;2023-03-05T05:01:55;3.70;99.90
19037;DHT22;9651;49.138;8.900;2023-03-05T05:05:59;3.70;99.90
19037;DHT22;9651;49.138;8.900;2023-03-05T05:10:02;3.70;99.90
19037;DHT22;9651;49.138;8.900;2023-03-05T05:14:04;3.70;99.90
19037;DHT22;9651;49.138;8.900;2023-03-05T05:18:06;3.70;99.90
19037;DHT22;9651;49.138;8.900;2023-03-05T05:22:09;3.70;99.90
19037;DHT22;9651;49.138;8.900;2023-03-05T05:26:11;3.60;99.90
19037;DHT22;9651;49.138;8.900;2023-03-05T05:30:14;3.50;99.90
19037;DHT22;9651;49.138;8.900;2023-03-05T05:34:16;3.50;99.90
19037;DHT22;9651;49.138;8.900;2023-03-05T05:38:20;3.60;99.90
19037;DHT22;9651;49.138;8.900;2023-03-05T05:42:23;3.50;99.90
19037;DHT22;9651;49.138;8.900;2023-03-05T05:46:25;3.50;99.90
19037;DHT22;9651;49.138;8.900;2023-03-05T05:50:28;3.50;99.90
19037;DHT22;9651;49.138;8.900;2023-03-05T05:54:31;3.60;99.90
19037;DHT22;9651;49.138;8.900;2023-03-05T05:58:34;3.50;99.90
19037;DHT22;9651;49.138;8.900;2023-03-05T06:02:37;3.50;99.90
19037;DHT22;9651;49.138;8.900;2023-03-05T06:06:39;3.60;99.90
19037;DHT22;9651;49.138;8.900;2023-03-05T06:10:42;3.50;99.90
19037;DHT22;9651;49.138;8.900;2023-03-05T06:14:44;3.50;99.90
19037;DHT22;9651;49.138;8.900;2023-03-05T06:18:46;3.50;99.90
19037;DHT22;9651;49.138;8.900;2023-03-05T06:22:48;3.50;99.90
19037;DHT22;9651;49.138;8.900;2023-03-05T06:26:51;3.50;99.90
19037;DHT22;9651;49.138;8.900;2023-03-05T06:30:59;3.50;99.90
19037;DHT22;9651;49.138;8.900;2023-03-05T06:35:01;3.50;99.90
19037;DHT22;9651;49.138;8.900;2023-03-05T06:39:03;3.50;99.90
19037;DHT22;9651;49.138;8.900;2023-03-05T06:43:06;3.50;99.90
19037;DHT22;9651;49.138;8.900;2023-03-05T06:47:08;3.50;99.90
19037;DHT22;9651;49.138;8.900;2023-03-05T06:51:15;3.50;99.90
19037;DHT22;9651;49.138;8.900;2023-03-05T06:55:17;3.60;99.90
19037;DHT22;9651;49.138;8.900;2023-03-05T06:59:20;3.60;99.90
19037;DHT22;9651;49.138;8.900;2023-03-05T07:03:22;3.60;99.90
19037;DHT22;9651;49.138;8.900;2023-03-05T07:07:24;3.70;99.90
19037;DHT22;9651;49.138;8.900;2023-03-05T07:11:27;3.70;99.90
19037;DHT22;9651;49.138;8.900;2023-03-05T07:15:30;3.60;99.90
19037;DHT22;9651;49.138;8.900;2023-03-05T07:19:32;3.70;99.90
19037;DHT22;9651;49.138;8.900;2023-03-05T07:23:35;3.70;99.90
19037;DHT22;9651;49.138;8.900;2023-03-05T07:27:37;3.80;99.90
19037;DHT22;9651;49.138;8.900;2023-03-05T07:31:40;3.80;99.90
19037;DHT22;9651;49.138;8.900;2023-03-05T07:35:42;3.80;99.90
19037;DHT22;9651;49.138;8.900;2023-03-05T07:39:44;3.80;99.90
19037;DHT22;9651;49.138;8.900;2023-03-05T07:43:46;3.90;99.90
19037;DHT22;9651;49.138;8.900;2023-03-05T07:47:50;3.90;99.90
19037;DHT22;9651;49.138;8.900;2023-03-05T07:51:51;3.90;99.90
19037;DHT22;9651;49.138;8.900;2023-03-05T07:55:53;4.00;99.90
19037;DHT22;9651;49.138;8.900;2023-03-05T07:59:55;4.10;99.90
19037;DHT22;9651;49.138;8.900;2023-03-05T08:03:58;4.10;99.90
19037;DHT22;9651;49.138;8.900;2023-03-05T08:08:00;4.10;99.90
19037;DHT22;9651;49.138;8.900;2023-03-05T08:12:03;4.20;99.90
19037;DHT22;9651;49.138;8.900;2023-03-05T08:16:06;4.20;99.90
19037;DHT22;9651;49.138;8.900;2023-03-05T08:20:11;4.20;99.90
19037;DHT22;9651;49.138;8.900;2023-03-05T08:24:13;4.30;99.90
19037;DHT22;9651;49.138;8.900;2023-03-05T08:28:15;4.20;99.90
19037;DHT22;9651;49.138;8.900;2023-03-05T08:32:19;4.30;99.90
19037;DHT22;9651;49.138;8.900;2023-03-05T08:36:22;4.30;99.90
19037;DHT22;9651;49.138;8.900;2023-03-05T08:40:24;4.30;99.90
19037;DHT22;9651;49.138;8.900;2023-03-05T08:44:26;4.40;99.90
19037;DHT22;9651;49.138;8.900;2023-03-05T08:48:28;4.40;99.90
19037;DHT22;9651;49.138;8.900;2023-03-05T08:52:32;4.50;99.90
19037;DHT22;9651;49.138;8.900;2023-03-05T08:56:34;4.50;99.90
19037;DHT22;9651;49.138;8.900;2023-03-05T09:00:36;4.60;99.90
19037;DHT22;9651;49.138;8.900;2023-03-05T09:04:38;4.70;99.90
19037;DHT22;9651;49.138;8.900;2023-03-05T09:08:41;4.90;99.90
19037;DHT22;9651;49.138;8.900;2023-03-05T09:12:43;5.20;99.90
19037;DHT22;9651;49.138;8.900;2023-03-05T09:16:45;5.40;99.90
19037;DHT22;9651;49.138;8.900;2023-03-05T09:20:47;5.70;99.90
19037;DHT22;9651;49.138;8.900;2023-03-05T09:24:50;5.90;99.90
19037;DHT22;9651;49.138;8.900;2023-03-05T09:28:52;6.00;99.90
19037;DHT22;9651;49.138;8.900;2023-03-05T09:32:54;6.20;99.90
19037;DHT22;9651;49.138;8.900;2023-03-05T09:36:56;6.40;99.90
19037;DHT22;9651;49.138;8.900;2023-03-05T09:41:04;6.60;99.90
19037;DHT22;9651;49.138;8.900;2023-03-05T09:45:17;6.80;99.90
19037;DHT22;9651;49.138;8.900;2023-03-05T09:49:31;6.90;99.90
19037;DHT22;9651;49.138;8.900;2023-03-05T09:53:37;7.00;99.90
19037;DHT22;9651;49.138;8.900;2023-03-05T09:57:49;7.10;99.90
19037;DHT22;9651;49.138;8.900;2023-03-05T10:01:56;7.40;99.90
19037;DHT22;9651;49.138;8.900;2023-03-05T10:06:04;7.50;99.90
19037;DHT22;9651;49.138;8.900;2023-03-05T10:10:10;7.60;99.90
19037;DHT22;9651;49.138;8.900;2023-03-05T10:14:22;7.60;99.90
19037;DHT22;9651;49.138;8.900;2023-03-05T10:18:29;7.70;99.90
19037;DHT22;9651;49.138;8.900;2023-03-05T10:22:38;7.80;99.90
19037;DHT22;9651;49.138;8.900;2023-03-05T10:26:57;7.60;99.90
19037;DHT22;9651;49.138;8.900;2023-03-05T10:35:45;7.30;99.90
19037;DHT22;9651;49.138;8.900;2023-03-05T10:40:02;7.40;99.90
19037;DHT22;9651;49.138;8.900;2023-03-05T10:44:14;7.20;99.90
19037;DHT22;9651;49.138;8.900;2023-03-05T10:48:27;7.10;99.90
19037;DHT22;9651;49.138;8.900;2023-03-05T10:52:34;7.00;99.90
19037;DHT22;9651;49.138;8.900;2023-03-05T10:56:37;6.90;99.90
19037;DHT22;9651;49.138;8.900;2023-03-05T11:00:39;6.90;99.90
19037;DHT22;9651;49.138;8.900;2023-03-05T11:04:42;6.90;99.90
19037;DHT22;9651;49.138;8.900;2023-03-05T11:08:46;6.80;99.90
19037;DHT22;9651;49.138;8.900;2023-03-05T11:12:48;6.80;99.90
19037;DHT22;9651;49.138;8.900;2023-03-05T11:16:50;6.80;99.90
19037;DHT22;9651;49.138;8.900;2023-03-05T11:21:07;6.80;99.90
19037;DHT22;9651;49.138;8.900;2023-03-05T11:25:14;6.80;99.90
19037;DHT22;9651;49.138;8.900;2023-03-05T11:29:21;6.80;99.90
19037;DHT22;9651;49.138;8.900;2023-03-05T11:33:23;6.90;99.90
19037;DHT22;9651;49.138;8.900;2023-03-05T11:37:28;6.80;99.90
19037;DHT22;9651;49.138;8.900;2023-03-05T11:41:33;6.90;99.90
19037;DHT22;9651;49.138;8.900;2023-03-05T11:45:37;6.80;99.90
19037;DHT22;9651;49.138;8.900;2023-03-05T11:49:44;6.80;99.90
19037;DHT22;9651;49.138;8.900;2023-03-05T11:53:50;6.70;99.90
19037;DHT22;9651;49.138;8.900;2023-03-05T11:58:02;6.80;99.90
19037;DHT22;9651;49.138;8.900;2023-03-05T12:02:16;6.90;99.90
19037;DHT22;9651;49.138;8.900;2023-03-05T12:06:26;6.90;99.90
19037;DHT22;9651;49.138;8.900;2023-03-05T12:10:30;6.90;99.90
19037;DHT22;9651;49.138;8.900;2023-03-05T12:14:35;7.00;99.90
19037;DHT22;9651;49.138;8.900;2023-03-05T12:18:53;7.10;99.90
19037;DHT22;9651;49.138;8.900;2023-03-05T12:22:59;7.00;99.90
19037;DHT22;9651;49.138;8.900;2023-03-05T12:27:11;6.90;99.90
19037;DHT22;9651;49.138;8.900;2023-03-05T12:31:33;6.80;99.90
19037;DHT22;9651;49.138;8.900;2023-03-05T12:35:45;6.70;99.90
19037;DHT22;9651;49.138;8.900;2023-03-05T12:39:49;6.60;99.90
19037;DHT22;9651;49.138;8.900;2023-03-05T12:44:17;6.60;99.90
19037;DHT22;9651;49.138;8.900;2023-03-05T12:48:42;6.50;99.90
19037;DHT22;9651;49.138;8.900;2023-03-05T12:52:46;6.50;99.90
19037;DHT22;9651;49.138;8.900;2023-03-05T12:56:48;6.40;99.90
19037;DHT22;9651;49.138;8.900;2023-03-05T13:00:53;6.20;99.90
19037;DHT22;9651;49.138;8.900;2023-03-05T13:05:02;6.20;99.90
19037;DHT22;9651;49.138;8.900;2023-03-05T13:09:15;6.30;99.90
19037;DHT22;9651;49.138;8.900;2023-03-05T13:13:17;6.40;99.90
19037;DHT22;9651;49.138;8.900;2023-03-05T13:17:31;6.40;99.90
19037;DHT22;9651;49.138;8.900;2023-03-05T13:21:34;6.40;99.90
19037;DHT22;9651;49.138;8.900;2023-03-05T13:25:38;6.50;99.90
19037;DHT22;9651;49.138;8.900;2023-03-05T13:29:49;6.60;99.90
19037;DHT22;9651;49.138;8.900;2023-03-05T13:33:53;6.70;99.90
19037;DHT22;9651;49.138;8.900;2023-03-05T13:37:56;6.70;99.90
19037;DHT22;9651;49.138;8.900;2023-03-05T13:42:02;6.80;99.90
19037;DHT22;9651;49.138;8.900;2023-03-05T13:46:04;6.80;99.90
19037;DHT22;9651;49.138;8.900;2023-03-05T13:50:20;6.80;99.90
19037;DHT22;9651;49.138;8.900;2023-03-05T13:54:24;6.80;99.90
19037;DHT22;9651;49.138;8.900;2023-03-05T13:58:48;6.70;99.90
19037;DHT22;9651;49.138;8.900;2023-03-05T14:02:51;6.80;99.90
19037;DHT22;9651;49.138;8.900;2023-03-05T14:06:57;6.80;99.90
19037;DHT22;9651;49.138;8.900;2023-03-05T14:11:11;6.80;99.90
19037;DHT22;9651;49.138;8.900;2023-03-05T14:15:22;6.90;99.90
19037;DHT22;9651;49.138;8.900;2023-03-05T14:19:34;6.90;99.90
19037;DHT22;9651;49.138;8.900;2023-03-05T14:23:39;6.90;99.90
19037;DHT22;9651;49.138;8.900;2023-03-05T14:27:42;6.90;99.90
19037;DHT22;9651;49.138;8.900;2023-03-05T14:31:51;6.90;99.90
19037;DHT22;9651;49.138;8.900;2023-03-05T14:35:53;7.00;99.90
19037;DHT22;9651;49.138;8.900;2023-03-05T14:39:59;6.90;99.90
19037;DHT22;9651;49.138;8.900;2023-03-05T14:44:10;6.80;99.90
19037;DHT22;9651;49.138;8.900;2023-03-05T14:48:16;6.70;99.90
19037;DHT22;9651;49.138;8.900;2023-03-05T14:52:20;6.80;99.90
19037;DHT22;9651;49.138;8.900;2023-03-05T14:56:24;6.70;99.90
19037;DHT22;9651;49.138;8.900;2023-03-05T15:00:27;6.70;99.90
19037;DHT22;9651;49.138;8.900;2023-03-05T15:04:30;6.60;99.90
19037;DHT22;9651;49.138;8.900;2023-03-05T15:08:32;6.60;99.90
19037;DHT22;9651;49.138;8.900;2023-03-05T15:12:34;6.40;99.90
19037;DHT22;9651;49.138;8.900;2023-03-05T15:16:36;6.30;99.90
19037;DHT22;9651;49.138;8.900;2023-03-05T15:20:40;6.20;99.90
19037;DHT22;9651;49.138;8.900;2023-03-05T15:24:42;6.20;99.90
19037;DHT22;9651;49.138;8.900;2023-03-05T15:28:44;6.20;99.90
19037;DHT22;9651;49.138;8.900;2023-03-05T15:32:46;6.20;99.90
19037;DHT22;9651;49.138;8.900;2023-03-05T15:36:49;6.30;99.90
19037;DHT22;9651;49.138;8.900;2023-03-05T15:40:51;6.30;99.90
19037;DHT22;9651;49.138;8.900;2023-03-05T15:44:53;6.20;99.90
19037;DHT22;9651;49.138;8.900;2023-03-05T15:48:55;6.10;99.90
19037;DHT22;9651;49.138;8.900;2023-03-05T15:52:58;6.10;99.90
19037;DHT22;9651;49.138;8.900;2023-03-05T15:57:00;6.00;99.90
19037;DHT22;9651;49.138;8.900;2023-03-05T16:01:02;6.10;99.90
19037;DHT22;9651;49.138;8.900;2023-03-05T16:05:05;6.00;99.90
19037;DHT22;9651;49.138;8.900;2023-03-05T16:09:08;6.00;99.90
19037;DHT22;9651;49.138;8.900;2023-03-05T16:13:13;6.00;99.90
19037;DHT22;9651;49.138;8.900;2023-03-05T16:17:16;6.00;99.90
19037;DHT22;9651;49.138;8.900;2023-03-05T16:21:20;5.90;99.90
19037;DHT22;9651;49.138;8.900;2023-03-05T16:25:23;5.80;99.90
19037;DHT22;9651;49.138;8.900;2023-03-05T16:29:25;5.70;99.90
19037;DHT22;9651;49.138;8.900;2023-03-05T16:33:28;5.70;99.90
19037;DHT22;9651;49.138;8.900;2023-03-05T16:37:30;5.70;99.90
19037;DHT22;9651;49.138;8.900;2023-03-05T16:41:33;5.60;99.90
19037;DHT22;9651;49.138;8.900;2023-03-05T16:45:35;5.60;99.90
19037;DHT22;9651;49.138;8.900;2023-03-05T16:49:38;5.60;99.90
19037;DHT22;9651;49.138;8.900;2023-03-05T16:53:40;5.60;99.90
19037;DHT22;9651;49.138;8.900;2023-03-05T16:57:43;5.60;99.90
19037;DHT22;9651;49.138;8.900;2023-03-05T17:01:45;5.50;99.90
19037;DHT22;9651;49.138;8.900;2023-03-05T17:05:47;5.40;99.90
19037;DHT22;9651;49.138;8.900;2023-03-05T17:09:49;5.40;99.90
19037;DHT22;9651;49.138;8.900;2023-03-05T17:13:53;5.30;99.90
19037;DHT22;9651;49.138;8.900;2023-03-05T17:17:55;5.30;99.90
19037;DHT22;9651;49.138;8.900;2023-03-05T17:21:57;5.30;99.90
19037;DHT22;9651;49.138;8.900;2023-03-05T17:26:02;5.20;99.90
19037;DHT22;9651;49.138;8.900;2023-03-05T17:30:08;5.20;99.90
19037;DHT22;9651;49.138;8.900;2023-03-05T17:34:10;5.20;99.90
19037;DHT22;9651;49.138;8.900;2023-03-05T17:38:13;5.10;99.90
19037;DHT22;9651;49.138;8.900;2023-03-05T17:42:14;5.10;99.90
19037;DHT22;9651;49.138;8.900;2023-03-05T17:46:21;5.10;99.90
19037;DHT22;9651;49.138;8.900;2023-03-05T17:50:23;5.10;99.90
19037;DHT22;9651;49.138;8.900;2023-03-05T17:54:25;5.00;99.90
19037;DHT22;9651;49.138;8.900;2023-03-05T17:58:27;5.00;99.90
19037;DHT22;9651;49.138;8.900;2023-03-05T18:02:30;4.90;99.90
19037;DHT22;9651;49.138;8.900;2023-03-05T18:06:33;4.90;99.90
19037;DHT22;9651;49.138;8.900;2023-03-05T18:10:35;4.90;99.90
19037;DHT22;9651;49.138;8.900;2023-03-05T18:14:37;4.80;99.90
19037;DHT22;9651;49.138;8.900;2023-03-05T18:18:40;4.90;99.90
19037;DHT22;9651;49.138;8.900;2023-03-05T18:22:42;4.80;99.90
19037;DHT22;9651;49.138;8.900;2023-03-05T18:26:44;4.80;99.90
19037;DHT22;9651;49.138;8.900;2023-03-05T18:30:46;4.80;99.90
19037;DHT22;9651;49.138;8.900;2023-03-05T18:34:49;4.70;99.90
19037;DHT22;9651;49.138;8.900;2023-03-05T18:38:51;4.70;99.90
19037;DHT22;9651;49.138;8.900;2023-03-05T18:42:53;4.70;99.90
19037;DHT22;9651;49.138;8.900;2023-03-05T18:46:55;4.60;99.90
19037;DHT22;9651;49.138;8.900;2023-03-05T18:50:59;4.50;99.90
19037;DHT22;9651;49.138;8.900;2023-03-05T18:55:00;4.50;99.90
19037;DHT22;9651;49.138;8.900;2023-03-05T18:59:02;4.50;99.90
19037;DHT22;9651;49.138;8.900;2023-03-05T19:03:04;4.40;99.90
19037;DHT22;9651;49.138;8.900;2023-03-05T19:07:08;4.40;99.90
19037;DHT22;9651;49.138;8.900;2023-03-05T19:11:15;4.40;99.90
19037;DHT22;9651;49.138;8.900;2023-03-05T19:15:18;4.40;99.90
19037;DHT22;9651;49.138;8.900;2023-03-05T19:19:20;4.40;99.90
19037;DHT22;9651;49.138;8.900;2023-03-05T19:23:24;4.40;99.90
19037;DHT22;9651;49.138;8.900;2023-03-05T19:27:26;4.30;99.90
19037;DHT22;9651;49.138;8.900;2023-03-05T19:31:28;4.30;99.90
19037;DHT22;9651;49.138;8.900;2023-03-05T19:35:31;4.40;99.90
19037;DHT22;9651;49.138;8.900;2023-03-05T19:39:34;4.30;99.90
19037;DHT22;9651;49.138;8.900;2023-03-05T19:43:36;4.30;99.90
19037;DHT22;9651;49.138;8.900;2023-03-05T19:47:38;4.30;99.90
19037;DHT22;9651;49.138;8.900;2023-03-05T19:51:40;4.30;99.90
19037;DHT22;9651;49.138;8.900;2023-03-05T19:55:44;4.30;99.90
19037;DHT22;9651;49.138;8.900;2023-03-05T19:59:50;4.20;99.90
19037;DHT22;9651;49.138;8.900;2023-03-05T20:03:53;4.30;99.90
19037;DHT22;9651;49.138;8.900;2023-03-05T20:07:55;4.20;99.90
19037;DHT22;9651;49.138;8.900;2023-03-05T20:11:58;4.30;99.90
19037;DHT22;9651;49.138;8.900;2023-03-05T20:16:02;4.30;99.90
19037;DHT22;9651;49.138;8.900;2023-03-05T20:20:05;4.20;99.90
19037;DHT22;9651;49.138;8.900;2023-03-05T20:24:11;4.10;99.90
19037;DHT22;9651;49.138;8.900;2023-03-05T20:28:14;4.10;99.90
19037;DHT22;9651;49.138;8.900;2023-03-05T20:32:16;4.10;99.90
19037;DHT22;9651;49.138;8.900;2023-03-05T20:36:18;4.00;99.90
19037;DHT22;9651;49.138;8.900;2023-03-05T20:40:20;4.00;99.90
19037;DHT22;9651;49.138;8.900;2023-03-05T20:44:23;4.00;99.90
19037;DHT22;9651;49.138;8.900;2023-03-05T20:48:27;4.00;99.90
19037;DHT22;9651;49.138;8.900;2023-03-05T20:52:29;4.00;99.90
19037;DHT22;9651;49.138;8.900;2023-03-05T20:56:33;3.90;99.90
19037;DHT22;9651;49.138;8.900;2023-03-05T21:00:37;3.90;99.90
19037;DHT22;9651;49.138;8.900;2023-03-05T21:04:39;3.90;99.90
19037;DHT22;9651;49.138;8.900;2023-03-05T21:08:41;3.90;99.90
19037;DHT22;9651;49.138;8.900;2023-03-05T21:12:45;3.90;99.90
19037;DHT22;9651;49.138;8.900;2023-03-05T21:16:48;3.90;99.90
19037;DHT22;9651;49.138;8.900;2023-03-05T21:20:50;3.80;99.90
19037;DHT22;9651;49.138;8.900;2023-03-05T21:24:53;3.90;99.90
19037;DHT22;9651;49.138;8.900;2023-03-05T21:29:02;3.90;99.90
19037;DHT22;9651;49.138;8.900;2023-03-05T21:33:06;3.80;99.90
19037;DHT22;9651;49.138;8.900;2023-03-05T21:37:08;3.80;99.90
19037;DHT22;9651;49.138;8.900;2023-03-05T21:41:11;3.80;99.90
19037;DHT22;9651;49.138;8.900;2023-03-05T21:45:15;3.80;99.90
19037;DHT22;9651;49.138;8.900;2023-03-05T21:49:18;3.80;99.90
19037;DHT22;9651;49.138;8.900;2023-03-05T21:53:21;3.80;99.90
19037;DHT22;9651;49.138;8.900;2023-03-05T21:57:23;3.80;99.90
19037;DHT22;9651;49.138;8.900;2023-03-05T22:01:26;3.80;99.90
19037;DHT22;9651;49.138;8.900;2023-03-05T22:05:29;3.80;99.90
19037;DHT22;9651;49.138;8.900;2023-03-05T22:09:31;3.80;99.90
19037;DHT22;9651;49.138;8.900;2023-03-05T22:13:33;3.80;99.90
19037;DHT22;9651;49.138;8.900;2023-03-05T22:17:35;3.80;99.90
19037;DHT22;9651;49.138;8.900;2023-03-05T22:21:38;3.80;99.90
19037;DHT22;9651;49.138;8.900;2023-03-05T22:25:40;3.80;99.90
19037;DHT22;9651;49.138;8.900;2023-03-05T22:29:42;3.80;99.90
19037;DHT22;9651;49.138;8.900;2023-03-05T22:33:44;3.80;99.90
19037;DHT22;9651;49.138;8.900;2023-03-05T22:37:47;3.90;99.90
19037;DHT22;9651;49.138;8.900;2023-03-05T22:41:49;3.90;99.90
19037;DHT22;9651;49.138;8.900;2023-03-05T22:45:51;3.90;99.90
19037;DHT22;9651;49.138;8.900;2023-03-05T22:49:53;3.90;99.90
19037;DHT22;9651;49.138;8.900;2023-03-05T22:53:56;3.90;99.90
19037;DHT22;9651;49.138;8.900;2023-03-05T22:57:58;3.80;99.90
19037;DHT22;9651;49.138;8.900;2023-03-05T23:02:00;3.80;99.90
19037;DHT22;9651;49.138;8.900;2023-03-05T23:06:03;3.80;99.90
19037;DHT22;9651;49.138;8.900;2023-03-05T23:10:09;3.70;99.90
19037;DHT22;9651;49.138;8.900;2023-03-05T23:14:11;3.70;99.90
19037;DHT22;9651;49.138;8.900;2023-03-05T23:18:13;3.70;99.90
19037;DHT22;9651;49.138;8.900;2023-03-05T23:22:15;3.60;99.90
19037;DHT22;9651;49.138;8.900;2023-03-05T23:26:18;3.60;99.90
19037;DHT22;9651;49.138;8.900;2023-03-05T23:30:20;3.60;99.90
19037;DHT22;9651;49.138;8.900;2023-03-05T23:34:22;3.60;99.90
19037;DHT22;9651;49.138;8.900;2023-03-05T23:38:27;3.60;99.90
19037;DHT22;9651;49.138;8.900;2023-03-05T23:42:31;3.60;99.90
19037;DHT22;9651;49.138;8.900;2023-03-05T23:46:33;3.60;99.90
19037;DHT22;9651;49.138;8.900;2023-03-05T23:50:36;3.60;99.90
19037;DHT22;9651;49.138;8.900;2023-03-05T23:54:39;3.60;99.90
19037;DHT22;9651;49.138;8.900;2023-03-05T23:58:42;3.60;99.90
